createdAt,value
2023-02-19T00:00:09.841Z,-6.21
2023-02-19T00:02:38.106Z,-6.20
2023-02-19T00:05:07.791Z,-6.24
2023-02-19T00:07:35.898Z,-6.26
2023-02-19T00:10:03.769Z,-6.24
2023-02-19T00:12:31.724Z,-6.29
2023-02-19T00:14:59.721Z,-6.20
2023-02-19T00:17:27.713Z,-6.23
2023-02-19T00:19:55.603Z,-6.23
2023-02-19T00:22:24.937Z,-6.14
2023-02-19T00:24:52.937Z,-6.22
2023-02-19T00:27:20.862Z,-6.15
2023-02-19T00:29:50.096Z,-6.19
2023-02-19T00:32:18.038Z,-6.18
2023-02-19T00:34:46.153Z,-6.22
2023-02-19T00:37:14.121Z,-6.25
2023-02-19T00:39:43.511Z,-6.34
2023-02-19T00:42:11.462Z,-6.35
2023-02-19T00:44:39.618Z,-6.29
2023-02-19T00:47:07.638Z,-6.32
2023-02-19T00:49:35.634Z,-6.31
2023-02-19T00:52:03.876Z,-6.24
2023-02-19T00:54:32.709Z,-6.48
2023-02-19T00:57:02.181Z,-6.35
2023-02-19T00:59:30.222Z,-6.32
2023-02-19T01:01:58.358Z,-6.30
2023-02-19T01:04:26.228Z,-6.24
2023-02-19T01:06:54.327Z,-6.31
2023-02-19T01:09:22.278Z,-6.32
2023-02-19T01:11:50.504Z,-6.34
2023-02-19T01:14:19.784Z,-6.26
2023-02-19T01:16:47.771Z,-6.25
2023-02-19T01:19:15.771Z,-6.34
2023-02-19T01:21:44.226Z,-6.44
2023-02-19T01:24:12.227Z,-6.34
2023-02-19T01:26:40.630Z,-6.36
2023-02-19T01:29:08.569Z,-6.45
2023-02-19T01:31:38.157Z,-6.49
2023-02-19T01:34:06.570Z,-6.48
2023-02-19T01:36:35.363Z,-6.46
2023-02-19T01:39:05.266Z,-6.39
2023-02-19T01:41:35.832Z,-6.41
2023-02-19T01:44:04.647Z,-6.46
2023-02-19T01:46:33.392Z,-6.36
2023-02-19T01:49:05.870Z,-6.36
2023-02-19T01:51:35.258Z,-6.41
2023-02-19T01:54:05.088Z,-6.36
2023-02-19T01:56:33.880Z,-6.38
2023-02-19T01:59:02.614Z,-6.38
2023-02-19T02:01:30.622Z,-6.36
2023-02-19T02:03:58.708Z,-6.31
2023-02-19T02:06:31.879Z,-6.35
2023-02-19T02:09:17.667Z,-6.46
2023-02-19T02:11:48.254Z,-6.33
2023-02-19T02:14:17.034Z,-6.39
2023-02-19T02:16:50.834Z,-6.46
2023-02-19T02:19:29.405Z,-6.47
2023-02-19T02:22:07.318Z,-6.44
2023-02-19T02:24:52.977Z,-6.47
2023-02-19T02:27:30.551Z,-6.53
2023-02-19T02:30:11.285Z,-6.49
2023-02-19T02:32:41.746Z,-6.47
2023-02-19T02:35:11.530Z,-6.50
2023-02-19T02:37:41.629Z,-6.37
2023-02-19T02:40:12.262Z,-6.42
2023-02-19T02:42:41.706Z,-6.47
2023-02-19T02:45:40.135Z,-6.56
2023-02-19T02:48:18.250Z,-6.56
2023-02-19T02:50:49.157Z,-6.54
2023-02-19T02:53:38.954Z,-6.53
2023-02-19T02:56:07.883Z,-6.43
2023-02-19T02:58:36.472Z,-6.55
2023-02-19T03:01:26.700Z,-6.66
2023-02-19T03:03:56.925Z,-6.49
2023-02-19T03:06:26.753Z,-6.50
2023-02-19T03:08:57.712Z,-6.48
2023-02-19T03:11:43.137Z,-6.42
2023-02-19T03:14:30.050Z,-6.45
2023-02-19T03:17:19.455Z,-6.45
2023-02-19T03:19:48.967Z,-6.37
2023-02-19T03:22:20.138Z,-6.33
2023-02-19T03:25:07.659Z,-6.30
2023-02-19T03:27:36.178Z,-6.35
2023-02-19T03:30:06.480Z,-6.32
2023-02-19T03:32:38.385Z,-6.30
2023-02-19T03:35:08.723Z,-6.37
2023-02-19T03:37:40.008Z,-6.34
2023-02-19T03:40:08.879Z,-6.26
2023-02-19T03:42:42.536Z,-6.39
2023-02-19T03:45:21.166Z,-6.45
2023-02-19T03:47:54.092Z,-6.40
2023-02-19T03:50:26.390Z,-6.45
2023-02-19T03:52:58.014Z,-6.49
2023-02-19T03:55:29.036Z,-6.41
2023-02-19T03:57:59.697Z,-6.38
2023-02-19T04:00:31.914Z,-6.46
2023-02-19T04:03:04.216Z,-6.34
2023-02-19T04:05:33.215Z,-6.41
2023-02-19T04:08:04.923Z,-6.48
2023-02-19T04:10:33.320Z,-6.40
2023-02-19T04:13:03.763Z,-6.43
2023-02-19T04:15:33.300Z,-6.46
2023-02-19T04:18:05.503Z,-6.42
2023-02-19T04:20:35.767Z,-6.38
2023-02-19T04:23:03.794Z,-6.46
2023-02-19T04:25:32.578Z,-6.40
2023-02-19T04:28:00.721Z,-6.37
2023-02-19T04:30:28.815Z,-6.30
2023-02-19T04:32:56.788Z,-6.36
2023-02-19T04:35:26.085Z,-6.35
2023-02-19T04:37:54.028Z,-6.21
2023-02-19T04:40:22.097Z,-6.19
2023-02-19T04:42:50.022Z,-6.13
2023-02-19T04:45:18.167Z,-6.27
2023-02-19T04:47:46.120Z,-6.21
2023-02-19T04:50:14.376Z,-6.32
2023-02-19T04:52:43.787Z,-6.20
2023-02-19T04:55:12.000Z,-6.16
2023-02-19T04:57:40.662Z,-6.17
2023-02-19T05:00:09.665Z,-6.13
2023-02-19T05:02:37.665Z,-6.14
2023-02-19T05:05:05.872Z,-6.15
2023-02-19T05:07:34.459Z,-6.23
2023-02-19T05:10:04.040Z,-6.33
2023-02-19T05:12:32.212Z,-6.32
2023-02-19T05:15:00.219Z,-6.16
2023-02-19T05:17:28.728Z,-6.27
2023-02-19T05:20:01.242Z,-6.18
2023-02-19T05:22:30.228Z,-6.08
2023-02-19T05:24:58.339Z,-6.00
2023-02-19T05:27:28.580Z,-6.04
2023-02-19T05:29:56.929Z,-5.98
2023-02-19T05:32:25.075Z,-5.94
2023-02-19T05:34:53.002Z,-6.00
2023-02-19T05:37:20.947Z,-5.88
2023-02-19T05:39:49.861Z,-6.02
2023-02-19T05:42:17.828Z,-5.79
2023-02-19T05:44:47.206Z,-5.79
2023-02-19T05:47:15.235Z,-5.82
2023-02-19T05:49:43.392Z,-5.83
2023-02-19T05:52:11.431Z,-5.75
2023-02-19T05:54:39.614Z,-5.66
2023-02-19T05:57:09.103Z,-5.65
2023-02-19T05:59:37.006Z,-5.62
2023-02-19T06:02:11.088Z,-5.48
2023-02-19T06:04:39.358Z,-5.41
2023-02-19T06:07:07.288Z,-5.34
2023-02-19T06:09:35.128Z,-5.33
2023-02-19T06:12:03.036Z,-5.21
2023-02-19T06:14:31.102Z,-5.30
2023-02-19T06:16:59.032Z,-5.18
2023-02-19T06:19:28.499Z,-5.25
2023-02-19T06:21:56.384Z,-5.23
2023-02-19T06:24:24.441Z,-5.12
2023-02-19T06:26:52.456Z,-5.01
2023-02-19T06:29:20.371Z,-5.04
2023-02-19T06:31:49.119Z,-4.93
2023-02-19T06:34:17.096Z,-4.86
2023-02-19T06:36:46.507Z,-4.83
2023-02-19T06:39:14.459Z,-4.70
2023-02-19T06:41:42.518Z,-4.64
2023-02-19T06:44:10.893Z,-4.70
2023-02-19T06:46:39.572Z,-4.42
2023-02-19T06:49:07.538Z,-4.54
2023-02-19T06:51:35.486Z,-4.47
2023-02-19T06:54:04.850Z,-4.43
2023-02-19T06:56:34.696Z,-4.52
2023-02-19T06:59:03.903Z,-4.51
2023-02-19T07:01:32.691Z,-4.56
2023-02-19T07:04:00.744Z,-4.38
2023-02-19T07:06:28.767Z,-4.38
2023-02-19T07:08:57.238Z,-4.35
2023-02-19T07:11:26.996Z,-4.58
2023-02-19T07:13:57.998Z,-4.68
2023-02-19T07:16:26.548Z,-4.58
2023-02-19T07:18:57.374Z,-4.59
2023-02-19T07:21:25.685Z,-4.87
2023-02-19T07:23:53.661Z,-4.98
2023-02-19T07:26:22.287Z,-4.90
2023-02-19T07:28:52.321Z,-4.95
2023-02-19T07:31:21.011Z,-4.72
2023-02-19T07:33:49.360Z,-4.67
2023-02-19T07:36:18.483Z,-4.62
2023-02-19T07:38:46.646Z,-4.68
2023-02-19T07:41:14.787Z,-4.57
2023-02-19T07:43:42.741Z,-4.33
2023-02-19T07:46:13.605Z,-4.32
2023-02-19T07:48:42.755Z,-4.18
2023-02-19T07:51:13.254Z,-4.33
2023-02-19T07:53:41.411Z,-4.43
2023-02-19T07:56:09.784Z,-4.31
2023-02-19T07:58:37.756Z,-4.21
2023-02-19T08:01:09.867Z,-4.04
2023-02-19T08:03:38.692Z,-3.90
2023-02-19T08:06:06.872Z,-3.94
2023-02-19T08:08:34.918Z,-3.92
2023-02-19T08:11:20.945Z,-3.93
2023-02-19T08:13:49.669Z,-3.66
2023-02-19T08:16:29.716Z,-3.75
2023-02-19T08:19:06.510Z,-3.56
2023-02-19T08:21:34.636Z,-3.47
2023-02-19T08:24:02.662Z,-3.56
2023-02-19T08:26:30.699Z,-3.48
2023-02-19T08:28:59.120Z,-3.34
2023-02-19T08:31:27.606Z,-3.57
2023-02-19T08:33:56.221Z,-3.52
2023-02-19T08:36:25.809Z,-3.49
2023-02-19T08:38:53.746Z,-3.51
2023-02-19T08:41:22.062Z,-3.57
2023-02-19T08:43:50.153Z,-3.42
2023-02-19T08:46:18.080Z,-3.23
2023-02-19T08:48:46.129Z,-3.38
2023-02-19T08:51:14.380Z,-3.49
2023-02-19T08:53:43.828Z,-3.66
2023-02-19T08:56:12.477Z,-3.41
2023-02-19T08:58:40.513Z,-3.44
2023-02-19T09:01:10.120Z,-3.31
2023-02-19T09:03:38.486Z,-3.36
2023-02-19T09:06:06.577Z,-3.34
2023-02-19T09:08:34.702Z,-3.67
2023-02-19T09:11:05.014Z,-3.69
2023-02-19T09:13:33.061Z,-3.44
2023-02-19T09:16:01.173Z,-3.06
2023-02-19T09:18:29.040Z,-3.03
2023-02-19T09:20:57.831Z,-3.31
2023-02-19T09:23:28.622Z,-3.20
2023-02-19T09:26:00.159Z,-3.16
2023-02-19T09:28:29.599Z,-3.30
2023-02-19T09:30:57.742Z,-3.20
2023-02-19T09:33:25.840Z,-3.17
2023-02-19T09:35:53.763Z,-3.07
2023-02-19T09:38:21.879Z,-3.09
2023-02-19T09:40:49.812Z,-2.91
2023-02-19T09:43:20.060Z,-2.68
2023-02-19T09:45:49.822Z,-2.74
2023-02-19T09:48:17.795Z,-3.00
2023-02-19T09:50:47.180Z,-2.86
2023-02-19T09:53:19.052Z,-2.80
2023-02-19T09:55:46.941Z,-2.81
2023-02-19T09:58:22.256Z,-2.98
2023-02-19T10:00:52.686Z,-2.89
2023-02-19T10:03:23.182Z,-3.00
2023-02-19T10:05:51.192Z,-2.63
2023-02-19T10:08:20.318Z,-2.53
2023-02-19T10:10:48.559Z,-2.82
2023-02-19T10:13:20.332Z,-2.81
2023-02-19T10:15:49.998Z,-2.85
2023-02-19T10:18:21.951Z,-2.81
2023-02-19T10:20:50.835Z,-2.86
2023-02-19T10:23:19.133Z,-2.68
2023-02-19T10:25:48.858Z,-2.68
2023-02-19T10:28:18.358Z,-2.49
2023-02-19T10:30:49.278Z,-2.52
2023-02-19T10:33:17.771Z,-2.70
2023-02-19T10:35:57.573Z,-2.72
2023-02-19T10:38:28.504Z,-2.71
2023-02-19T10:41:01.856Z,-2.72
2023-02-19T10:43:33.948Z,-2.42
2023-02-19T10:46:03.732Z,-2.28
2023-02-19T10:48:33.406Z,-1.88
2023-02-19T10:51:05.133Z,-1.68
2023-02-19T10:53:39.141Z,-1.61
2023-02-19T10:56:08.158Z,-1.37
2023-02-19T10:58:37.917Z,-1.14
2023-02-19T11:01:20.136Z,-0.98
2023-02-19T11:03:48.578Z,-0.80
2023-02-19T11:06:19.396Z,-0.90
2023-02-19T11:08:49.151Z,-0.95
2023-02-19T11:11:27.977Z,-1.27
2023-02-19T11:13:57.712Z,-1.10
2023-02-19T11:16:37.611Z,-1.15
2023-02-19T11:19:05.641Z,-1.44
2023-02-19T11:21:35.887Z,-1.54
2023-02-19T11:24:04.894Z,-1.45
2023-02-19T11:26:38.213Z,-1.52
2023-02-19T11:29:14.347Z,-1.38
2023-02-19T11:31:42.358Z,-1.31
2023-02-19T11:34:29.884Z,-1.55
2023-02-19T11:37:12.328Z,-1.78
2023-02-19T11:39:41.042Z,-1.69
2023-02-19T11:42:29.529Z,-1.64
2023-02-19T11:45:09.727Z,-1.40
2023-02-19T11:47:45.341Z,-1.23
2023-02-19T11:50:19.716Z,-1.40
2023-02-19T11:52:55.217Z,-1.46
2023-02-19T11:55:27.039Z,-1.45
2023-02-19T11:57:58.038Z,-1.41
2023-02-19T12:00:27.640Z,-1.84
2023-02-19T12:03:22.539Z,-2.06
2023-02-19T12:06:05.314Z,-2.00
2023-02-19T12:08:51.240Z,-2.01
2023-02-19T12:11:28.617Z,-2.00
2023-02-19T12:14:03.484Z,-2.16
2023-02-19T12:16:32.986Z,-2.14
2023-02-19T12:19:21.868Z,-2.33
2023-02-19T12:21:57.232Z,-2.41
2023-02-19T12:24:36.864Z,-2.40
2023-02-19T12:27:15.890Z,-2.39
2023-02-19T12:29:50.383Z,-2.35
2023-02-19T12:32:27.795Z,-2.36
2023-02-19T12:35:12.533Z,-2.30
2023-02-19T12:37:46.433Z,-2.46
2023-02-19T12:40:18.814Z,-2.54
2023-02-19T12:42:54.206Z,-2.55
2023-02-19T12:45:25.774Z,-2.71
2023-02-19T12:48:00.876Z,-2.67
2023-02-19T12:50:28.995Z,-2.57
2023-02-19T12:52:59.313Z,-2.66
2023-02-19T12:55:29.409Z,-2.57
2023-02-19T12:58:01.544Z,-2.59
2023-02-19T13:00:31.803Z,-2.57
2023-02-19T13:03:02.312Z,-2.72
2023-02-19T13:05:37.319Z,-2.69
2023-02-19T13:08:07.781Z,-2.94
2023-02-19T13:10:41.417Z,-3.10
2023-02-19T13:13:13.672Z,-3.16
2023-02-19T13:15:44.205Z,-3.16
2023-02-19T13:18:15.720Z,-3.31
2023-02-19T13:20:44.686Z,-3.35
2023-02-19T13:23:32.336Z,-3.40
2023-02-19T13:26:08.278Z,-3.37
2023-02-19T13:28:50.825Z,-3.36
2023-02-19T13:31:36.752Z,-3.45
2023-02-19T13:34:11.100Z,-3.44
2023-02-19T13:36:39.253Z,-3.41
2023-02-19T13:39:07.755Z,-3.38
2023-02-19T13:41:39.707Z,-3.55
2023-02-19T13:44:18.008Z,-3.40
2023-02-19T13:46:47.214Z,-3.54
2023-02-19T13:49:41.352Z,-3.41
2023-02-19T13:52:27.965Z,-3.41
2023-02-19T13:55:23.888Z,-3.43
2023-02-19T13:57:51.922Z,-3.44
2023-02-19T14:00:50.598Z,-3.57
2023-02-19T14:03:28.822Z,-3.65
2023-02-19T14:06:01.526Z,-3.74
2023-02-19T14:08:44.394Z,-3.81
2023-02-19T14:11:14.476Z,-3.78
2023-02-19T14:14:11.233Z,-3.74
2023-02-19T14:16:53.969Z,-3.75
2023-02-19T14:19:36.818Z,-3.88
2023-02-19T14:22:27.740Z,-3.88
2023-02-19T14:24:56.056Z,-3.85
2023-02-19T14:27:24.229Z,-3.81
2023-02-19T14:29:52.911Z,-3.90
2023-02-19T14:32:21.471Z,-3.99
2023-02-19T14:34:49.554Z,-3.91
2023-02-19T14:37:21.155Z,-3.88
2023-02-19T14:39:49.293Z,-3.90
2023-02-19T14:42:18.767Z,-3.89
2023-02-19T14:44:49.386Z,-3.95
2023-02-19T14:47:19.522Z,-3.99
2023-02-19T14:49:49.459Z,-4.03
2023-02-19T14:52:21.531Z,-4.09
2023-02-19T14:54:51.216Z,-4.20
2023-02-19T14:57:21.535Z,-4.35
2023-02-19T14:59:57.566Z,-4.21
2023-02-19T15:02:26.166Z,-4.25
2023-02-19T15:04:54.697Z,-4.29
2023-02-19T15:07:25.920Z,-4.38
2023-02-19T15:09:57.331Z,-4.34
2023-02-19T15:12:26.569Z,-4.40
2023-02-19T15:14:57.312Z,-4.32
2023-02-19T15:17:27.361Z,-4.28
2023-02-19T15:19:55.767Z,-4.22
2023-02-19T15:22:28.602Z,-4.37
2023-02-19T15:24:56.566Z,-4.36
2023-02-19T15:27:25.410Z,-4.42
2023-02-19T15:29:54.162Z,-4.45
2023-02-19T15:32:23.330Z,-4.49
2023-02-19T15:34:57.708Z,-4.42
2023-02-19T15:37:28.287Z,-4.30
2023-02-19T15:39:57.692Z,-4.29
2023-02-19T15:42:26.874Z,-4.21
2023-02-19T15:44:58.362Z,-4.26
2023-02-19T15:47:33.294Z,-4.31
2023-02-19T15:50:09.020Z,-4.32
2023-02-19T15:52:45.699Z,-4.30
2023-02-19T15:55:20.941Z,-4.20
2023-02-19T15:57:52.168Z,-4.23
2023-02-19T16:00:22.362Z,-4.26
2023-02-19T16:02:50.538Z,-4.29
2023-02-19T16:05:25.953Z,-4.20
2023-02-19T16:08:08.603Z,-4.21
2023-02-19T16:10:36.689Z,-4.33
2023-02-19T16:13:05.588Z,-4.23
2023-02-19T16:15:34.451Z,-4.24
2023-02-19T16:18:02.539Z,-4.22
2023-02-19T16:20:31.309Z,-4.33
2023-02-19T16:23:00.980Z,-4.26
2023-02-19T16:25:32.799Z,-4.24
2023-02-19T16:28:00.837Z,-4.23
2023-02-19T16:30:30.951Z,-4.17
2023-02-19T16:33:17.450Z,-4.30
2023-02-19T16:35:45.418Z,-4.33
2023-02-19T16:38:14.165Z,-4.22
2023-02-19T16:41:03.076Z,-4.33
2023-02-19T16:43:39.559Z,-4.42
2023-02-19T16:46:09.892Z,-4.37
2023-02-19T16:48:38.107Z,-4.30
2023-02-19T16:51:06.977Z,-4.34
2023-02-19T16:53:35.110Z,-4.39
2023-02-19T16:56:03.169Z,-4.47
2023-02-19T16:58:32.516Z,-4.44
2023-02-19T17:01:00.971Z,-4.31
2023-02-19T17:03:28.988Z,-4.43
2023-02-19T17:05:57.587Z,-4.32
2023-02-19T17:08:35.598Z,-4.34
2023-02-19T17:11:04.895Z,-4.33
2023-02-19T17:13:34.383Z,-4.30
2023-02-19T17:16:02.599Z,-4.34
2023-02-19T17:18:30.596Z,-4.26
2023-02-19T17:21:00.942Z,-4.33
2023-02-19T17:23:28.871Z,-4.38
2023-02-19T17:25:56.999Z,-4.30
2023-02-19T17:28:24.907Z,-4.34
2023-02-19T17:30:54.376Z,-4.33
2023-02-19T17:33:22.302Z,-4.42
2023-02-19T17:35:50.345Z,-4.41
2023-02-19T17:38:18.197Z,-4.31
2023-02-19T17:40:46.445Z,-4.32
2023-02-19T17:43:14.835Z,-4.24
2023-02-19T17:45:42.957Z,-4.38
2023-02-19T17:48:13.413Z,-4.25
2023-02-19T17:50:41.717Z,-4.25
2023-02-19T17:53:10.179Z,-4.18
2023-02-19T17:55:38.022Z,-4.10
2023-02-19T17:58:06.093Z,-4.16
2023-02-19T18:00:36.712Z,-4.08
2023-02-19T18:03:04.790Z,-4.11
2023-02-19T18:05:34.130Z,-4.17
2023-02-19T18:08:02.120Z,-4.16
2023-02-19T18:10:30.633Z,-4.14
2023-02-19T18:12:58.484Z,-4.25
2023-02-19T18:15:27.518Z,-4.13
2023-02-19T18:17:56.047Z,-4.29
2023-02-19T18:20:25.113Z,-4.19
2023-02-19T18:22:54.768Z,-4.12
2023-02-19T18:25:23.154Z,-4.09
2023-02-19T18:27:51.134Z,-4.02
2023-02-19T18:30:20.646Z,-4.00
2023-02-19T18:32:49.043Z,-4.06
2023-02-19T18:35:17.328Z,-4.06
2023-02-19T18:37:45.523Z,-4.05
2023-02-19T18:40:15.265Z,-3.97
2023-02-19T18:42:43.161Z,-3.97
2023-02-19T18:45:11.113Z,-4.01
2023-02-19T18:47:39.095Z,-3.97
2023-02-19T18:50:08.439Z,-3.97
2023-02-19T18:52:36.385Z,-4.00
2023-02-19T18:55:04.423Z,-4.10
2023-02-19T18:57:33.817Z,-4.02
2023-02-19T19:00:01.841Z,-4.12
2023-02-19T19:02:42.649Z,-4.06
2023-02-19T19:05:17.908Z,-4.02
2023-02-19T19:07:45.880Z,-4.00
2023-02-19T19:10:14.868Z,-4.04
2023-02-19T19:12:44.142Z,-4.11
2023-02-19T19:15:12.165Z,-4.06
2023-02-19T19:17:40.569Z,-3.99
2023-02-19T19:20:09.089Z,-4.05
2023-02-19T19:22:37.263Z,-3.94
2023-02-19T19:25:05.529Z,-3.90
2023-02-19T19:27:33.478Z,-3.94
2023-02-19T19:30:02.939Z,-3.91
2023-02-19T19:32:31.675Z,-3.85
2023-02-19T19:34:59.653Z,-3.85
2023-02-19T19:37:29.298Z,-3.85
2023-02-19T19:39:57.385Z,-3.80
2023-02-19T19:42:25.391Z,-3.77
2023-02-19T19:44:53.384Z,-3.81
2023-02-19T19:47:22.710Z,-3.83
2023-02-19T19:49:50.680Z,-3.74
2023-02-19T19:52:18.696Z,-3.81
2023-02-19T19:54:46.712Z,-3.78
2023-02-19T19:57:14.702Z,-3.76
2023-02-19T19:59:42.608Z,-3.79
2023-02-19T20:02:12.041Z,-3.76
2023-02-19T20:04:41.355Z,-3.77
2023-02-19T20:07:09.221Z,-3.80
2023-02-19T20:09:37.131Z,-3.74
2023-02-19T20:12:05.261Z,-3.92
2023-02-19T20:14:33.901Z,-3.86
2023-02-19T20:17:02.036Z,-3.79
2023-02-19T20:19:29.949Z,-3.73
2023-02-19T20:21:59.341Z,-3.73
2023-02-19T20:24:28.983Z,-3.84
2023-02-19T20:26:58.681Z,-3.79
2023-02-19T20:29:27.947Z,-3.82
2023-02-19T20:31:56.637Z,-3.84
2023-02-19T20:34:24.716Z,-3.78
2023-02-19T20:36:53.058Z,-3.78
2023-02-19T20:39:22.994Z,-3.78
2023-02-19T20:41:51.881Z,-3.75
2023-02-19T20:44:20.689Z,-3.85
2023-02-19T20:46:49.530Z,-3.74
2023-02-19T20:49:18.839Z,-3.72
2023-02-19T20:51:47.327Z,-3.72
2023-02-19T20:54:15.969Z,-3.64
2023-02-19T20:56:46.824Z,-3.60
2023-02-19T20:59:15.077Z,-3.62
2023-02-19T21:01:43.137Z,-3.61
2023-02-19T21:04:13.444Z,-3.59
2023-02-19T21:06:41.337Z,-3.54
2023-02-19T21:09:09.271Z,-3.54
2023-02-19T21:11:37.409Z,-3.51
2023-02-19T21:14:06.700Z,-3.48
2023-02-19T21:16:34.825Z,-3.48
2023-02-19T21:19:02.772Z,-3.45
2023-02-19T21:21:31.900Z,-3.44
2023-02-19T21:24:00.557Z,-3.42
2023-02-19T21:26:34.125Z,-3.40
2023-02-19T21:29:01.992Z,-3.40
2023-02-19T21:31:38.463Z,-3.38
2023-02-19T21:34:06.847Z,-3.36
2023-02-19T21:36:34.864Z,-3.41
2023-02-19T21:39:02.813Z,-3.37
2023-02-19T21:41:30.953Z,-3.36
2023-02-19T21:43:59.126Z,-3.33
2023-02-19T21:46:27.421Z,-3.32
2023-02-19T21:48:57.603Z,-3.32
2023-02-19T21:51:29.476Z,-3.31
2023-02-19T21:53:57.478Z,-3.29
2023-02-19T21:56:26.527Z,-3.27
2023-02-19T21:58:54.494Z,-3.25
2023-02-19T22:01:22.328Z,-3.26
2023-02-19T22:03:50.277Z,-3.24
2023-02-19T22:06:19.805Z,-3.30
2023-02-19T22:08:47.760Z,-3.40
2023-02-19T22:11:15.714Z,-3.37
2023-02-19T22:13:43.733Z,-3.41
2023-02-19T22:16:12.276Z,-3.36
2023-02-19T22:18:40.497Z,-3.32
2023-02-19T22:21:08.411Z,-3.30
2023-02-19T22:23:37.684Z,-3.28
2023-02-19T22:26:05.815Z,-3.32
2023-02-19T22:28:33.694Z,-3.31
2023-02-19T22:31:01.556Z,-3.29
2023-02-19T22:33:29.497Z,-3.33
2023-02-19T22:35:57.386Z,-3.41
2023-02-19T22:38:25.329Z,-3.33
2023-02-19T22:40:54.618Z,-3.31
2023-02-19T22:43:22.479Z,-3.29
2023-02-19T22:45:50.463Z,-3.32
2023-02-19T22:48:29.671Z,-3.28
2023-02-19T22:50:58.999Z,-3.23
2023-02-19T22:53:27.058Z,-3.21
2023-02-19T22:55:56.357Z,-3.21
2023-02-19T22:58:24.195Z,-3.21
2023-02-19T23:00:52.124Z,-3.22
2023-02-19T23:03:19.984Z,-3.22
2023-02-19T23:05:48.678Z,-3.18
2023-02-19T23:08:16.717Z,-3.18
2023-02-19T23:10:44.770Z,-3.17
2023-02-19T23:13:14.110Z,-3.16
2023-02-19T23:15:42.037Z,-3.16
2023-02-19T23:18:10.076Z,-3.16
2023-02-19T23:20:38.142Z,-3.16
2023-02-19T23:23:05.991Z,-3.12
2023-02-19T23:25:33.923Z,-3.14
2023-02-19T23:28:01.859Z,-3.13
2023-02-19T23:30:31.314Z,-3.12
2023-02-19T23:32:59.359Z,-3.13
2023-02-19T23:35:27.230Z,-3.12
2023-02-19T23:37:55.248Z,-3.13
2023-02-19T23:40:23.120Z,-3.14
2023-02-19T23:42:50.987Z,-3.18
2023-02-19T23:45:19.111Z,-3.17
2023-02-19T23:47:48.404Z,-3.17
2023-02-19T23:50:16.311Z,-3.18
2023-02-19T23:52:44.284Z,-3.17
2023-02-19T23:55:12.337Z,-3.17
2023-02-19T23:57:40.706Z,-3.19
